Terminal Aerodrome Forecast
Issued by NWS

Home | Current Version | Previous Version | Text Only | Print | Product List | Glossary On
Versions: 1 2 3 4 5 6 7 8 9 10 11 12 13 14
000
FTUS43 KJKL 201100
TAFSME
TAF
KSME 201120Z 2012/2112 36003KT P6SM VCSH OVC080
     FM201600 31007KT P6SM FEW070 BKN080
     FM202300 VRB05KT P6SM SCT080=

USA.gov is the U.S. government's official web portal to all federal, state and local government web resources and services.